Time;durP1;ratioP1;P1;durP2;ratioP2;P2;SDS_P1;SDS_P2;PMS_P1;PMS_P2;Temp;Humidity;BMP_temperature;BMP_pressure;BME280_temperature;BME280_humidity;BME280_pressure;Samples;Min_cycle;Max_cycle;Signal;HPM_P1;HPM_P2
2022/03/22 00:02:04;;;;;;;;;;;12.70;37.10;;;;;;5082836;28;19919;-89
2022/03/22 00:04:29;;;;;;;;;;;12.70;37.10;;;;;;5082381;28;19912;-89
2022/03/22 00:06:55;;;;;;;;;;;12.70;37.10;;;;;;5082696;28;19923;-89
2022/03/22 00:09:21;;;;;;;;;;;12.70;37.10;;;;;;5100445;28;20209;-89
2022/03/22 00:11:50;;;;;;;;;;;12.70;37.20;;;;;;5082431;28;19908;-89
2022/03/22 00:14:16;;;;;;;;;;;12.70;37.20;;;;;;5101306;28;19920;-89
2022/03/22 00:16:41;;;;;;;;;;;12.60;37.20;;;;;;5082196;28;19943;-89
2022/03/22 00:19:07;;;;;;;;;;;12.60;37.30;;;;;;5100073;28;20392;-88
2022/03/22 00:21:35;;;;;;;;;;;12.60;37.20;;;;;;5099312;28;19974;-88
2022/03/22 00:24:05;;;;;;;;;;;12.60;37.20;;;;;;5082442;28;19924;-86
2022/03/22 00:26:31;;;;;;;;;;;12.50;37.10;;;;;;5066307;28;19912;-89
2022/03/22 00:28:57;;;;;;;;;;;12.50;37.10;;;;;;5081327;28;19912;-88
2022/03/22 00:31:25;;;;;;;;;;;12.40;37.00;;;;;;5082061;28;19912;-88
2022/03/22 00:33:51;;;;;;;;;;;12.30;37.00;;;;;;5082265;28;19916;-89
2022/03/22 00:36:16;;;;;;;;;;;12.20;37.10;;;;;;5082934;28;19943;-88
2022/03/22 00:38:41;;;;;;;;;;;12.20;37.10;;;;;;5099786;28;19912;-89
2022/03/22 00:41:07;;;;;;;;;;;12.10;37.20;;;;;;5082146;28;19917;-88
2022/03/22 00:43:35;;;;;;;;;;;12.10;37.20;;;;;;5099324;28;19916;-88
2022/03/22 00:46:01;;;;;;;;;;;12.00;37.30;;;;;;5085334;28;19909;-87
2022/03/22 00:48:27;;;;;;;;;;;11.90;37.60;;;;;;5061472;28;20010;-89
2022/03/22 00:50:53;;;;;;;;;;;12.00;37.70;;;;;;5078561;28;19962;-88
2022/03/22 00:53:19;;;;;;;;;;;11.90;37.90;;;;;;5062042;28;19974;-88
2022/03/22 00:55:45;;;;;;;;;;;11.90;38.00;;;;;;5061579;28;19912;-88
2022/03/22 00:58:13;;;;;;;;;;;11.90;38.00;;;;;;5075477;28;19957;-89
2022/03/22 01:00:39;;;;;;;;;;;11.90;37.90;;;;;;5099343;28;19970;-88
2022/03/22 01:03:05;;;;;;;;;;;11.90;37.90;;;;;;5064862;28;19920;-88
2022/03/22 01:05:32;;;;;;;;;;;11.90;37.90;;;;;;5085484;28;19908;-88
2022/03/22 01:07:58;;;;;;;;;;;11.80;37.80;;;;;;5103821;28;19920;-87
2022/03/22 01:10:25;;;;;;;;;;;11.80;37.80;;;;;;5084527;28;19961;-89
2022/03/22 01:12:51;;;;;;;;;;;11.80;37.80;;;;;;5083770;28;19927;-88
2022/03/22 01:15:18;;;;;;;;;;;11.80;37.80;;;;;;5084479;28;20003;-88
2022/03/22 01:17:45;;;;;;;;;;;11.70;37.90;;;;;;5103288;28;19947;-88
2022/03/22 01:20:11;;;;;;;;;;;11.80;38.00;;;;;;5101653;28;19920;-89
2022/03/22 01:22:38;;;;;;;;;;;11.70;38.00;;;;;;5102733;28;19916;-88
2022/03/22 01:25:09;;;;;;;;;;;11.70;38.00;;;;;;5083585;28;20316;-89
2022/03/22 01:27:34;;;;;;;;;;;11.70;38.00;;;;;;5084325;28;20350;-88
2022/03/22 01:30:00;;;;;;;;;;;11.60;38.00;;;;;;5101336;28;19908;-88
2022/03/22 01:32:25;;;;;;;;;;;11.60;38.00;;;;;;5084791;28;19912;-88
2022/03/22 01:34:51;;;;;;;;;;;11.60;37.90;;;;;;5084495;28;19912;-88
2022/03/22 01:37:16;;;;;;;;;;;11.50;37.90;;;;;;5103410;28;20372;-88
2022/03/22 01:39:42;;;;;;;;;;;11.50;37.90;;;;;;5084548;28;20401;-88
2022/03/22 01:42:07;;;;;;;;;;;11.50;38.00;;;;;;5083998;28;19916;-88
2022/03/22 01:44:33;;;;;;;;;;;11.50;38.20;;;;;;5086768;28;19913;-87
2022/03/22 01:47:01;;;;;;;;;;;11.50;38.20;;;;;;5066392;28;19920;-88
2022/03/22 01:49:27;;;;;;;;;;;11.50;38.20;;;;;;5083732;28;20370;-89
2022/03/22 01:51:54;;;;;;;;;;;11.50;38.20;;;;;;5101660;28;19896;-89
2022/03/22 01:54:19;;;;;;;;;;;11.50;38.10;;;;;;5100539;28;20402;-89
2022/03/22 01:56:45;;;;;;;;;;;11.50;38.10;;;;;;5080118;28;19928;-89
2022/03/22 01:59:10;;;;;;;;;;;11.50;38.10;;;;;;5082202;28;19961;-90
2022/03/22 02:07:06;;;;;;;;;;;11.40;38.30;;;;;;5100842;28;20035;-88
2022/03/22 02:09:31;;;;;;;;;;;11.40;38.40;;;;;;5100760;28;20352;-88
2022/03/22 02:11:57;;;;;;;;;;;11.40;38.40;;;;;;5101056;28;19979;-90
2022/03/22 02:14:22;;;;;;;;;;;11.40;38.50;;;;;;5082394;28;19916;-89
2022/03/22 02:16:48;;;;;;;;;;;11.50;38.40;;;;;;5081849;28;19912;-89
2022/03/22 02:19:14;;;;;;;;;;;11.40;38.40;;;;;;5083088;28;19961;-89
2022/03/22 02:21:40;;;;;;;;;;;11.50;38.30;;;;;;5101009;28;20440;-89
2022/03/22 02:24:05;;;;;;;;;;;11.50;38.30;;;;;;5083433;28;19944;-89
2022/03/22 02:26:31;;;;;;;;;;;11.40;38.40;;;;;;5083224;28;20332;-89
2022/03/22 02:28:56;;;;;;;;;;;11.40;38.30;;;;;;5101357;28;20000;-89
2022/03/22 02:31:22;;;;;;;;;;;11.30;38.30;;;;;;5099698;28;20380;-88
2022/03/22 02:33:49;;;;;;;;;;;11.30;38.40;;;;;;5082927;28;19965;-89
2022/03/22 02:36:15;;;;;;;;;;;11.30;38.50;;;;;;5083082;28;19941;-88
2022/03/22 02:38:41;;;;;;;;;;;11.20;38.50;;;;;;5082837;28;19928;-89
2022/03/22 02:41:07;;;;;;;;;;;11.20;38.50;;;;;;5083309;28;20390;-88
2022/03/22 02:43:33;;;;;;;;;;;11.20;38.60;;;;;;5100854;28;19912;-90
2022/03/22 02:46:01;;;;;;;;;;;11.10;38.60;;;;;;5082306;28;19911;-89
2022/03/22 02:48:27;;;;;;;;;;;11.10;38.70;;;;;;5098246;28;19927;-89
2022/03/22 02:50:52;;;;;;;;;;;11.00;38.90;;;;;;5100666;28;20536;-88
2022/03/22 02:53:18;;;;;;;;;;;11.00;38.90;;;;;;5101386;28;19934;-89
2022/03/22 02:55:43;;;;;;;;;;;11.00;39.00;;;;;;5082152;28;20280;-89
2022/03/22 02:58:09;;;;;;;;;;;11.00;39.00;;;;;;5098617;28;20364;-88
2022/03/22 03:00:37;;;;;;;;;;;10.90;39.00;;;;;;5100400;28;20371;-88
2022/03/22 03:03:04;;;;;;;;;;;10.90;39.10;;;;;;5099707;28;19950;-90
2022/03/22 03:05:30;;;;;;;;;;;10.80;39.10;;;;;;5081425;28;19999;-89
2022/03/22 03:07:56;;;;;;;;;;;10.80;39.20;;;;;;5080592;28;20001;-88
2022/03/22 03:10:22;;;;;;;;;;;10.80;39.10;;;;;;5080849;28;19916;-90
2022/03/22 03:12:56;;;;;;;;;;;10.70;39.20;;;;;;5099773;28;19973;-88
2022/03/22 03:15:21;;;;;;;;;;;10.70;39.20;;;;;;5081675;28;19916;-89
2022/03/22 03:17:47;;;;;;;;;;;10.70;39.30;;;;;;5098405;28;19912;-89
2022/03/22 03:20:12;;;;;;;;;;;10.60;39.40;;;;;;5098980;28;19916;-88
2022/03/22 03:22:38;;;;;;;;;;;10.50;39.60;;;;;;5080148;28;19991;-89
2022/03/22 03:25:06;;;;;;;;;;;10.50;39.90;;;;;;5083719;28;19919;-89
2022/03/22 03:27:32;;;;;;;;;;;10.50;40.00;;;;;;5060523;28;19966;-90
2022/03/22 03:29:58;;;;;;;;;;;10.50;40.20;;;;;;5060031;28;20268;-89
2022/03/22 03:32:25;;;;;;;;;;;10.40;40.20;;;;;;5060575;28;19913;-89
2022/03/22 03:34:50;;;;;;;;;;;10.40;40.30;;;;;;5061106;28;19974;-88
2022/03/22 03:37:16;;;;;;;;;;;10.40;40.20;;;;;;5060764;28;19920;-89
2022/03/22 03:39:43;;;;;;;;;;;10.40;40.30;;;;;;5059810;28;19921;-90
2022/03/22 03:42:09;;;;;;;;;;;10.40;40.30;;;;;;5059399;28;19928;-89
2022/03/22 03:47:22;;;;;;;;;;;10.30;40.20;;;;;;5078353;28;19984;-88
2022/03/22 03:49:49;;;;;;;;;;;10.20;40.20;;;;;;5078786;28;19913;-89
2022/03/22 03:52:20;;;;;;;;;;;10.20;40.30;;;;;;5078344;28;20093;-88
2022/03/22 03:54:46;;;;;;;;;;;10.20;40.20;;;;;;5060132;28;20003;-89
2022/03/22 03:57:12;;;;;;;;;;;10.10;40.30;;;;;;5060777;28;19952;-87
2022/03/22 03:59:38;;;;;;;;;;;10.10;40.70;;;;;;5060119;28;19916;-89
2022/03/22 04:02:04;;;;;;;;;;;10.00;40.90;;;;;;5060444;28;20295;-89
2022/03/22 04:04:29;;;;;;;;;;;10.00;41.50;;;;;;5087942;28;19928;-88
2022/03/22 04:06:55;;;;;;;;;;;9.90;41.10;;;;;;5099227;28;19916;-88
2022/03/22 04:09:20;;;;;;;;;;;9.80;41.00;;;;;;5080655;28;19919;-89
2022/03/22 04:11:46;;;;;;;;;;;9.80;41.00;;;;;;5080954;28;19923;-88
2022/03/22 04:14:12;;;;;;;;;;;9.70;41.10;;;;;;5098433;28;20241;-89
2022/03/22 04:16:38;;;;;;;;;;;9.60;41.10;;;;;;5080327;28;19916;-88
2022/03/22 04:19:05;;;;;;;;;;;9.50;41.00;;;;;;5079284;28;19962;-89
2022/03/22 04:21:34;;;;;;;;;;;9.50;41.00;;;;;;5080233;28;19920;-89
2022/03/22 04:24:01;;;;;;;;;;;9.30;41.00;;;;;;5079803;28;19923;-90
2022/03/22 04:26:26;;;;;;;;;;;9.30;41.20;;;;;;5080707;28;19915;-89
2022/03/22 04:34:20;;;;;;;;;;;9.00;41.60;;;;;;5098866;28;19938;-88
2022/03/22 04:36:55;;;;;;;;;;;9.00;41.90;;;;;;5098256;28;19916;-89
2022/03/22 04:39:21;;;;;;;;;;;9.00;42.10;;;;;;5082347;28;19916;-89
2022/03/22 04:41:47;;;;;;;;;;;9.00;42.20;;;;;;5101364;28;20052;-88
2022/03/22 04:44:12;;;;;;;;;;;9.00;42.10;;;;;;5103391;28;20351;-89
2022/03/22 04:46:37;;;;;;;;;;;9.00;42.40;;;;;;5084500;28;19931;-89
2022/03/22 04:49:03;;;;;;;;;;;9.00;43.00;;;;;;5081101;28;20378;-89
2022/03/22 04:56:57;;;;;;;;;;;9.00;42.60;;;;;;5101155;28;19919;-89
2022/03/22 04:59:24;;;;;;;;;;;9.00;42.60;;;;;;5080862;28;19916;-89
2022/03/22 05:01:50;;;;;;;;;;;9.00;42.40;;;;;;5101414;28;20375;-88
2022/03/22 05:04:16;;;;;;;;;;;8.90;42.40;;;;;;5083603;28;19921;-90
2022/03/22 05:06:42;;;;;;;;;;;8.80;42.60;;;;;;5082320;28;20008;-88
2022/03/22 05:09:10;;;;;;;;;;;8.80;42.50;;;;;;5078835;28;20438;-90
2022/03/22 05:11:36;;;;;;;;;;;8.70;42.40;;;;;;5081423;28;19908;-90
2022/03/22 05:14:02;;;;;;;;;;;8.70;42.60;;;;;;5080939;28;20019;-89
2022/03/22 05:16:29;;;;;;;;;;;8.60;42.60;;;;;;5067371;28;19920;-90
2022/03/22 05:18:56;;;;;;;;;;;8.60;42.60;;;;;;5081423;28;19916;-89
2022/03/22 05:21:22;;;;;;;;;;;8.60;43.00;;;;;;5070973;28;19921;-89
2022/03/22 05:23:48;;;;;;;;;;;8.60;43.00;;;;;;5080697;28;20249;-89
2022/03/22 05:26:13;;;;;;;;;;;8.60;43.10;;;;;;5080508;28;20344;-88
2022/03/22 05:28:39;;;;;;;;;;;8.70;43.10;;;;;;5075908;28;19991;-88
2022/03/22 05:31:05;;;;;;;;;;;8.70;43.10;;;;;;5081883;28;19981;-88
2022/03/22 05:33:31;;;;;;;;;;;8.70;43.10;;;;;;5080239;28;19912;-89
2022/03/22 05:35:56;;;;;;;;;;;8.70;43.10;;;;;;5099614;28;19916;-89
2022/03/22 05:38:25;;;;;;;;;;;8.70;43.30;;;;;;5081879;28;19919;-87
2022/03/22 05:40:51;;;;;;;;;;;8.70;43.40;;;;;;5080942;28;19976;-90
2022/03/22 05:43:17;;;;;;;;;;;8.80;43.50;;;;;;5101193;28;19943;-88
2022/03/22 05:45:48;;;;;;;;;;;8.80;43.50;;;;;;5099357;28;19965;-87
2022/03/22 05:48:17;;;;;;;;;;;8.90;43.70;;;;;;5100548;28;19908;-89
2022/03/22 05:50:43;;;;;;;;;;;8.90;43.80;;;;;;5100385;28;19919;-89
2022/03/22 05:53:10;;;;;;;;;;;9.00;44.00;;;;;;5099412;28;19912;-88
2022/03/22 05:55:39;;;;;;;;;;;9.10;44.10;;;;;;5083168;28;19973;-90
2022/03/22 05:58:05;;;;;;;;;;;9.20;44.20;;;;;;5094450;28;19938;-89
2022/03/22 06:00:34;;;;;;;;;;;9.40;44.40;;;;;;5082140;28;20003;-89
2022/03/22 06:02:59;;;;;;;;;;;9.50;44.50;;;;;;5071660;28;19920;-89
2022/03/22 06:05:25;;;;;;;;;;;9.70;44.60;;;;;;5093826;28;19927;-89
2022/03/22 06:07:50;;;;;;;;;;;9.90;44.80;;;;;;5100622;28;19991;-88
2022/03/22 06:10:16;;;;;;;;;;;10.10;44.90;;;;;;5079425;28;19915;-89
2022/03/22 06:12:45;;;;;;;;;;;10.30;45.00;;;;;;5081372;28;19943;-90
2022/03/22 06:15:17;;;;;;;;;;;10.60;45.10;;;;;;5098144;28;19908;-89
2022/03/22 06:17:49;;;;;;;;;;;10.80;45.10;;;;;;5095218;28;19916;-90
2022/03/22 06:20:17;;;;;;;;;;;11.10;45.10;;;;;;5074813;28;19981;-90
2022/03/22 06:22:45;;;;;;;;;;;11.40;44.90;;;;;;5097536;28;19912;-88
2022/03/22 06:25:11;;;;;;;;;;;11.70;44.80;;;;;;5067871;28;19961;-89
2022/03/22 06:27:37;;;;;;;;;;;11.90;45.00;;;;;;5073326;28;19961;-89
2022/03/22 06:30:04;;;;;;;;;;;12.20;45.10;;;;;;5073848;28;19971;-89
2022/03/22 06:32:29;;;;;;;;;;;12.60;45.10;;;;;;5094640;28;19953;-91
2022/03/22 06:34:55;;;;;;;;;;;13.00;45.00;;;;;;5069357;28;20323;-90
2022/03/22 06:37:21;;;;;;;;;;;13.40;44.90;;;;;;5079771;28;19923;-90
2022/03/22 06:39:47;;;;;;;;;;;13.70;44.70;;;;;;5073198;28;20371;-90
2022/03/22 06:42:12;;;;;;;;;;;14.10;44.30;;;;;;5084924;28;19916;-89
2022/03/22 06:44:40;;;;;;;;;;;14.50;43.90;;;;;;5098202;28;19923;-91
2022/03/22 06:47:05;;;;;;;;;;;14.90;43.50;;;;;;5099912;28;19956;-90
2022/03/22 06:49:31;;;;;;;;;;;15.30;43.10;;;;;;5098700;28;19912;-87
2022/03/22 06:51:56;;;;;;;;;;;15.70;42.80;;;;;;5098980;28;19944;-91
2022/03/22 06:54:22;;;;;;;;;;;16.20;42.40;;;;;;5080449;28;19912;-89
2022/03/22 06:56:48;;;;;;;;;;;16.70;42.10;;;;;;5078394;28;19919;-91
2022/03/22 06:59:13;;;;;;;;;;;17.20;41.80;;;;;;5076754;28;19969;-90
2022/03/22 07:01:39;;;;;;;;;;;17.70;41.40;;;;;;5074224;28;19916;-91
2022/03/22 07:04:04;;;;;;;;;;;18.20;41.00;;;;;;5077614;28;19970;-90
2022/03/22 07:06:30;;;;;;;;;;;18.70;40.30;;;;;;5075264;28;19916;-89
2022/03/22 07:08:55;;;;;;;;;;;19.20;39.70;;;;;;5076611;28;19912;-90
2022/03/22 07:14:05;;;;;;;;;;;20.00;37.70;;;;;;5090395;28;20386;-90
2022/03/22 07:16:38;;;;;;;;;;;20.40;36.90;;;;;;5099131;28;19920;-91
2022/03/22 07:19:03;;;;;;;;;;;20.80;36.30;;;;;;5073366;28;19919;-91
2022/03/22 07:21:29;;;;;;;;;;;21.20;35.20;;;;;;5081638;28;19924;-89
2022/03/22 07:23:55;;;;;;;;;;;21.50;35.20;;;;;;5072441;28;19920;-89
2022/03/22 07:26:21;;;;;;;;;;;21.90;34.60;;;;;;5062913;28;19924;-91
2022/03/22 07:28:48;;;;;;;;;;;22.30;34.00;;;;;;5100503;28;19960;-90
2022/03/22 07:31:13;;;;;;;;;;;22.70;33.10;;;;;;5069649;28;19972;-90
2022/03/22 07:33:39;;;;;;;;;;;23.10;32.50;;;;;;5075949;28;19951;-90
2022/03/22 07:36:04;;;;;;;;;;;23.50;32.30;;;;;;5085710;28;20398;-92
2022/03/22 07:38:30;;;;;;;;;;;23.90;31.30;;;;;;5081367;28;20360;-90
2022/03/22 07:40:55;;;;;;;;;;;24.20;30.60;;;;;;5096963;28;19923;-92
2022/03/22 07:43:21;;;;;;;;;;;24.50;29.40;;;;;;5066634;28;20042;-92
2022/03/22 07:45:46;;;;;;;;;;;24.80;29.10;;;;;;5072803;28;19920;-90
2022/03/22 07:48:12;;;;;;;;;;;25.20;29.10;;;;;;5088560;28;19916;-90
2022/03/22 07:53:22;;;;;;;;;;;25.90;28.60;;;;;;5076753;28;19954;-91
2022/03/22 07:55:47;;;;;;;;;;;26.30;27.60;;;;;;5078546;28;19913;-91
2022/03/22 07:58:13;;;;;;;;;;;26.60;27.30;;;;;;5087020;28;19913;-90
2022/03/22 08:00:39;;;;;;;;;;;26.90;26.70;;;;;;5074139;28;19920;-92
2022/03/22 08:03:05;;;;;;;;;;;27.20;26.00;;;;;;5075058;28;19932;-90
2022/03/22 08:05:32;;;;;;;;;;;27.50;25.70;;;;;;5069605;28;20054;-90
2022/03/22 08:07:59;;;;;;;;;;;27.70;25.20;;;;;;5069744;28;20469;-90
2022/03/22 08:10:25;;;;;;;;;;;27.90;24.90;;;;;;5089675;28;19952;-89
2022/03/22 08:12:52;;;;;;;;;;;28.20;24.50;;;;;;5068414;28;19916;-89
2022/03/22 08:15:17;;;;;;;;;;;28.40;24.40;;;;;;5080928;28;19912;-90
2022/03/22 08:17:43;;;;;;;;;;;28.70;24.20;;;;;;5096937;28;20374;-90
2022/03/22 08:20:10;;;;;;;;;;;28.90;24.00;;;;;;5094393;28;19920;-91
2022/03/22 08:22:55;;;;;;;;;;;29.20;23.10;;;;;;5088073;28;19963;-90
2022/03/22 08:25:25;;;;;;;;;;;29.30;23.10;;;;;;5058467;28;19999;-91
2022/03/22 08:27:51;;;;;;;;;;;29.50;23.00;;;;;;5092754;28;19920;-89
2022/03/22 08:30:20;;;;;;;;;;;29.80;22.50;;;;;;5089258;28;19969;-91
2022/03/22 08:32:46;;;;;;;;;;;29.90;22.10;;;;;;5074465;28;19937;-92
2022/03/22 08:35:11;;;;;;;;;;;30.00;21.60;;;;;;5092536;28;19956;-91
2022/03/22 08:37:38;;;;;;;;;;;30.10;21.60;;;;;;5079537;28;19912;-91
2022/03/22 08:40:05;;;;;;;;;;;30.20;21.20;;;;;;5077895;28;19948;-91
2022/03/22 08:42:31;;;;;;;;;;;30.20;20.80;;;;;;5102162;28;19916;-90
2022/03/22 08:44:56;;;;;;;;;;;30.30;20.80;;;;;;5081060;28;19917;-91
2022/03/22 08:47:21;;;;;;;;;;;30.50;20.60;;;;;;5100627;28;19971;-92
2022/03/22 08:49:48;;;;;;;;;;;30.60;20.40;;;;;;5101478;28;20283;-91
2022/03/22 08:52:14;;;;;;;;;;;30.60;20.30;;;;;;5073833;28;19983;-91
2022/03/22 08:54:39;;;;;;;;;;;30.60;19.80;;;;;;5075991;28;19978;-91
2022/03/22 08:57:05;;;;;;;;;;;30.60;20.00;;;;;;5071486;28;20007;-92
2022/03/22 08:59:30;;;;;;;;;;;30.70;19.60;;;;;;5081439;28;19900;-92
2022/03/22 09:01:57;;;;;;;;;;;30.70;19.50;;;;;;5095740;28;19947;-90
2022/03/22 09:07:07;;;;;;;;;;;30.80;19.90;;;;;;5101535;28;19924;-91
2022/03/22 09:09:32;;;;;;;;;;;31.10;20.00;;;;;;5085967;28;20279;-91
2022/03/22 09:11:58;;;;;;;;;;;31.30;19.70;;;;;;5084911;28;20007;-90
2022/03/22 09:14:24;;;;;;;;;;;31.50;19.20;;;;;;5073203;28;19909;-91
2022/03/22 09:16:50;;;;;;;;;;;31.50;19.20;;;;;;5097976;28;19957;-91
2022/03/22 09:19:15;;;;;;;;;;;31.70;19.00;;;;;;5079684;28;19989;-91
2022/03/22 09:21:41;;;;;;;;;;;31.70;18.40;;;;;;5101251;28;19924;-91
2022/03/22 09:24:07;;;;;;;;;;;31.80;18.60;;;;;;5099896;28;19954;-91
2022/03/22 09:26:33;;;;;;;;;;;31.80;18.80;;;;;;5072999;28;19912;-92
2022/03/22 09:28:58;;;;;;;;;;;32.00;18.30;;;;;;5074187;28;20390;-90
2022/03/22 09:31:24;;;;;;;;;;;32.10;18.40;;;;;;5072166;28;19913;-91
2022/03/22 09:33:50;;;;;;;;;;;32.20;18.20;;;;;;5081511;28;19916;-91
2022/03/22 09:36:16;;;;;;;;;;;32.30;18.00;;;;;;5073616;28;19966;-90
2022/03/22 09:38:41;;;;;;;;;;;32.20;17.50;;;;;;5071614;28;19956;-91
2022/03/22 09:41:07;;;;;;;;;;;32.20;17.50;;;;;;5072262;28;19916;-88
2022/03/22 09:43:33;;;;;;;;;;;32.20;17.70;;;;;;5079864;28;19916;-90
2022/03/22 09:46:00;;;;;;;;;;;32.30;17.60;;;;;;5086244;28;19947;-89
2022/03/22 09:48:27;;;;;;;;;;;32.40;17.50;;;;;;5092325;28;20002;-90
2022/03/22 09:53:37;;;;;;;;;;;32.60;17.20;;;;;;5091120;28;19978;-91
2022/03/22 09:56:03;;;;;;;;;;;32.80;17.30;;;;;;5078110;28;20574;-91
2022/03/22 09:58:28;;;;;;;;;;;32.90;17.10;;;;;;5083093;28;19962;-90
2022/03/22 10:00:54;;;;;;;;;;;33.00;17.20;;;;;;5095349;28;19912;-90
2022/03/22 10:03:20;;;;;;;;;;;33.20;16.80;;;;;;5083700;28;20296;-92
2022/03/22 10:05:57;;;;;;;;;;;33.20;16.90;;;;;;5094447;28;19916;-91
2022/03/22 10:08:23;;;;;;;;;;;33.30;17.00;;;;;;5067372;28;20368;-91
2022/03/22 10:10:52;;;;;;;;;;;33.50;16.30;;;;;;5072388;28;19919;-91
2022/03/22 10:13:17;;;;;;;;;;;33.50;16.60;;;;;;5075976;28;19916;-91
2022/03/22 10:15:43;;;;;;;;;;;33.60;16.10;;;;;;5091317;28;19923;-93
2022/03/22 10:18:19;;;;;;;;;;;33.60;16.10;;;;;;5078407;28;19913;-90
2022/03/22 10:20:45;;;;;;;;;;;33.60;16.00;;;;;;5061882;28;19958;-91
2022/03/22 10:23:11;;;;;;;;;;;33.80;16.40;;;;;;5081158;28;20249;-90
2022/03/22 10:25:40;;;;;;;;;;;33.90;16.10;;;;;;5082498;28;19908;-89
2022/03/22 10:28:06;;;;;;;;;;;34.20;16.00;;;;;;5075880;28;19912;-91
2022/03/22 10:30:32;;;;;;;;;;;34.30;16.40;;;;;;5094717;28;20344;-90
2022/03/22 10:32:58;;;;;;;;;;;34.70;16.20;;;;;;5079365;28;19958;-92
2022/03/22 10:35:25;;;;;;;;;;;34.80;15.50;;;;;;5075907;28;19912;-91
2022/03/22 10:37:55;;;;;;;;;;;35.00;15.30;;;;;;5098687;28;19957;-91
2022/03/22 10:40:22;;;;;;;;;;;35.20;15.30;;;;;;5085655;28;19987;-92
2022/03/22 10:42:51;;;;;;;;;;;35.20;15.30;;;;;;5078209;28;19967;-90
2022/03/22 10:45:17;;;;;;;;;;;35.30;15.20;;;;;;5089877;28;19903;-91
2022/03/22 10:47:43;;;;;;;;;;;35.40;14.70;;;;;;5097637;28;19912;-90
2022/03/22 10:50:08;;;;;;;;;;;35.40;14.60;;;;;;5072584;28;19916;-91
2022/03/22 10:52:37;;;;;;;;;;;35.50;14.20;;;;;;5080364;28;19984;-89
2022/03/22 10:55:03;;;;;;;;;;;35.50;14.40;;;;;;5089809;28;19927;-91
2022/03/22 11:08:10;;;;;;;;;;;35.60;14.40;;;;;;6376688;22;19918;-91
2022/03/22 11:10:42;;;;;;;;;;;35.80;13.00;;;;;;6358728;22;20046;-92
2022/03/22 11:13:09;;;;;;;;;;;35.80;12.80;;;;;;6368023;22;19921;-93
2022/03/22 11:15:43;;;;;;;;;;;35.70;12.70;;;;;;6370953;22;19921;-93
2022/03/22 11:18:10;;;;;;;;;;;35.60;12.70;;;;;;6388200;22;19973;-90
2022/03/22 11:20:49;;;;;;;;;;;35.40;12.40;;;;;;6381786;22;19935;-91
2022/03/22 11:23:18;;;;;;;;;;;35.30;12.50;;;;;;6352778;22;19925;-89
2022/03/22 11:25:44;;;;;;;;;;;35.00;12.40;;;;;;6353960;22;19910;-89
2022/03/22 11:28:12;;;;;;;;;;;34.80;12.60;;;;;;6356503;22;19914;-92
2022/03/22 11:30:39;;;;;;;;;;;34.80;13.00;;;;;;6369405;22;19918;-92
2022/03/22 11:35:52;;;;;;;;;;;35.20;12.90;;;;;;6351821;22;19926;-92
2022/03/22 11:38:36;;;;;;;;;;;35.00;12.80;;;;;;6319065;22;19921;-89
2022/03/22 11:43:48;;;;;;;;;;;34.70;12.60;;;;;;6348859;22;19976;-92
2022/03/22 11:46:14;;;;;;;;;;;34.60;12.80;;;;;;6338726;22;20323;-89
2022/03/22 11:48:46;;;;;;;;;;;34.50;12.40;;;;;;6345912;22;19915;-89
2022/03/22 11:51:13;;;;;;;;;;;34.30;12.30;;;;;;6346802;22;19919;-90
2022/03/22 11:53:43;;;;;;;;;;;33.80;12.60;;;;;;6332800;22;19911;-92
2022/03/22 11:58:47;;;;;;;;;;;33.80;12.80;;;;;;6382942;22;19925;-91
2022/03/22 12:01:15;;;;;;;;;;;33.60;12.70;;;;;;6382449;22;19911;-90
2022/03/22 12:03:48;;;;;;;;;;;33.50;12.80;;;;;;6354237;22;19928;-90
2022/03/22 12:06:16;;;;;;;;;;;33.30;12.70;;;;;;6381677;22;19921;-90
2022/03/22 12:08:42;;;;;;;;;;;33.30;13.20;;;;;;6375575;22;19920;-90
2022/03/22 12:11:12;;;;;;;;;;;33.40;13.30;;;;;;6347619;22;20328;-90
2022/03/22 12:13:44;;;;;;;;;;;33.60;13.30;;;;;;6348470;22;20340;-90
2022/03/22 12:16:09;;;;;;;;;;;33.30;12.90;;;;;;6321598;22;20330;-90
2022/03/22 12:18:35;;;;;;;;;;;33.30;13.30;;;;;;6374864;22;19985;-90
2022/03/22 12:21:00;;;;;;;;;;;33.30;13.30;;;;;;6374858;22;19989;-90
2022/03/22 12:23:26;;;;;;;;;;;33.50;13.10;;;;;;6374651;22;19910;-91
2022/03/22 12:25:52;;;;;;;;;;;33.40;12.70;;;;;;6346993;22;19914;-91
2022/03/22 12:28:17;;;;;;;;;;;33.30;12.90;;;;;;6346509;22;19925;-91
2022/03/22 12:30:44;;;;;;;;;;;33.20;13.10;;;;;;6345086;22;19958;-91
2022/03/22 12:33:11;;;;;;;;;;;33.10;13.20;;;;;;6373786;22;19917;-91
2022/03/22 12:35:38;;;;;;;;;;;33.00;13.40;;;;;;6374351;22;19968;-90
2022/03/22 12:38:04;;;;;;;;;;;33.10;13.30;;;;;;6345849;22;19955;-90
2022/03/22 12:40:31;;;;;;;;;;;33.10;13.30;;;;;;6346459;22;19960;-89
2022/03/22 12:42:57;;;;;;;;;;;33.00;13.40;;;;;;6372504;22;19910;-90
2022/03/22 12:45:23;;;;;;;;;;;32.80;13.20;;;;;;6344898;22;19915;-91
2022/03/22 12:47:49;;;;;;;;;;;32.50;13.30;;;;;;6345024;22;19910;-90
2022/03/22 12:50:16;;;;;;;;;;;32.30;13.30;;;;;;6373566;22;19910;-90
2022/03/22 12:52:42;;;;;;;;;;;32.20;13.40;;;;;;6346171;22;19996;-91
2022/03/22 12:55:09;;;;;;;;;;;32.10;13.60;;;;;;6344757;22;19913;-87
2022/03/22 12:57:34;;;;;;;;;;;32.00;13.50;;;;;;6344115;22;19925;-88
2022/03/22 13:00:00;;;;;;;;;;;31.80;13.60;;;;;;6371242;22;19911;-87
2022/03/22 13:02:26;;;;;;;;;;;31.70;13.90;;;;;;6371322;22;19910;-87
2022/03/22 13:04:53;;;;;;;;;;;31.60;13.90;;;;;;6343639;22;19920;-88
2022/03/22 13:07:23;;;;;;;;;;;31.50;14.00;;;;;;6344092;22;19907;-88
2022/03/22 13:12:34;;;;;;;;;;;31.40;14.30;;;;;;6372858;22;19952;-87
2022/03/22 13:15:06;;;;;;;;;;;31.40;14.30;;;;;;6344388;22;19906;-87
2022/03/22 13:17:33;;;;;;;;;;;31.30;14.50;;;;;;6344849;22;19918;-87
2022/03/22 13:20:01;;;;;;;;;;;31.30;14.50;;;;;;6371511;22;20339;-87
2022/03/22 13:22:27;;;;;;;;;;;31.30;14.60;;;;;;6374888;22;19910;-87
2022/03/22 13:25:03;;;;;;;;;;;31.20;14.50;;;;;;6344820;22;20726;-88
2022/03/22 13:27:28;;;;;;;;;;;30.90;14.50;;;;;;6373947;22;19910;-87
2022/03/22 13:29:54;;;;;;;;;;;30.70;14.70;;;;;;6374959;22;19913;-89
2022/03/22 13:32:26;;;;;;;;;;;30.20;14.70;;;;;;6372925;22;20250;-87
2022/03/22 13:34:57;;;;;;;;;;;29.60;15.20;;;;;;6373037;22;20160;-88
2022/03/22 13:37:23;;;;;;;;;;;28.90;15.60;;;;;;6344907;22;19922;-87
2022/03/22 13:39:50;;;;;;;;;;;28.30;16.10;;;;;;6373273;22;19913;-89
2022/03/22 13:42:16;;;;;;;;;;;27.80;16.30;;;;;;6344862;22;19910;-88
2022/03/22 13:45:02;;;;;;;;;;;27.40;16.70;;;;;;6371956;22;19921;-88
2022/03/22 13:47:32;;;;;;;;;;;26.90;16.90;;;;;;6371497;22;19922;-88
2022/03/22 13:49:58;;;;;;;;;;;26.50;17.10;;;;;;6344908;22;19963;-89
2022/03/22 13:52:25;;;;;;;;;;;26.20;17.50;;;;;;6372612;22;19953;-89
2022/03/22 13:54:55;;;;;;;;;;;25.90;17.70;;;;;;6344296;22;20001;-88
2022/03/22 13:57:28;;;;;;;;;;;25.70;18.00;;;;;;6319366;22;19918;-89
2022/03/22 14:00:00;;;;;;;;;;;25.50;18.10;;;;;;6371304;22;19934;-89
2022/03/22 14:02:25;;;;;;;;;;;25.30;18.00;;;;;;6371446;22;19917;-88
2022/03/22 14:04:51;;;;;;;;;;;25.10;18.20;;;;;;6344163;22;20179;-87
2022/03/22 14:07:16;;;;;;;;;;;24.90;18.40;;;;;;6343237;22;19906;-88
2022/03/22 14:09:42;;;;;;;;;;;24.80;18.50;;;;;;6343929;22;19916;-89
2022/03/22 14:12:07;;;;;;;;;;;24.70;18.60;;;;;;6344130;22;19910;-88
2022/03/22 14:14:33;;;;;;;;;;;24.60;18.90;;;;;;6343607;22;19910;-88
2022/03/22 14:16:58;;;;;;;;;;;24.50;18.90;;;;;;6343870;22;20270;-88
2022/03/22 14:19:24;;;;;;;;;;;24.50;19.00;;;;;;6372317;22;19923;-88
2022/03/22 14:21:50;;;;;;;;;;;24.40;18.90;;;;;;6350297;22;19906;-88
2022/03/22 14:24:15;;;;;;;;;;;24.30;19.00;;;;;;6374772;22;19910;-89
2022/03/22 14:26:41;;;;;;;;;;;24.20;19.10;;;;;;6378489;22;19913;-89
2022/03/22 14:29:06;;;;;;;;;;;24.20;19.10;;;;;;6350610;22;20284;-89
2022/03/22 14:31:32;;;;;;;;;;;24.10;18.90;;;;;;6344107;22;19910;-89
2022/03/22 14:33:58;;;;;;;;;;;24.10;18.90;;;;;;6378350;22;19906;-88
2022/03/22 14:36:23;;;;;;;;;;;24.00;19.00;;;;;;6379982;22;19918;-88
2022/03/22 14:38:49;;;;;;;;;;;24.00;18.50;;;;;;6376226;22;19941;-89
2022/03/22 14:41:27;;;;;;;;;;;24.00;18.50;;;;;;6370928;22;19911;-88
2022/03/22 14:43:54;;;;;;;;;;;23.90;18.60;;;;;;6370981;22;19932;-89
2022/03/22 14:46:20;;;;;;;;;;;23.90;18.30;;;;;;6343181;22;19946;-88
2022/03/22 14:48:54;;;;;;;;;;;23.90;18.20;;;;;;6369788;22;19985;-88
2022/03/22 14:54:04;;;;;;;;;;;23.80;18.10;;;;;;6371722;22;19913;-88
2022/03/22 14:59:15;;;;;;;;;;;23.70;18.20;;;;;;6370326;22;19932;-87
2022/03/22 15:01:41;;;;;;;;;;;23.70;18.40;;;;;;6341141;22;20339;-88
2022/03/22 15:04:06;;;;;;;;;;;23.70;18.40;;;;;;6343329;22;19907;-88
2022/03/22 15:06:32;;;;;;;;;;;23.60;18.30;;;;;;6342822;22;19938;-88
2022/03/22 15:08:58;;;;;;;;;;;23.50;18.30;;;;;;6340332;22;19914;-87
2022/03/22 15:11:24;;;;;;;;;;;23.50;18.50;;;;;;6340299;22;19940;-88
2022/03/22 15:13:51;;;;;;;;;;;23.50;18.70;;;;;;6340810;22;19910;-88